sensor_id;sensor_type;location;lat;lon;timestamp;pressure;altitude;pressure_sealevel;temperature
21210;BMP180;10762;42.206;25.326;2024-03-23T00:55:53;99644.00;;;11.10
21210;BMP180;10762;42.206;25.326;2024-03-23T00:58:19;99646.00;;;11.10
21210;BMP180;10762;42.206;25.326;2024-03-23T01:00:45;99649.00;;;11.10
21210;BMP180;10762;42.206;25.326;2024-03-23T01:03:11;99646.00;;;11.10
21210;BMP180;10762;42.206;25.326;2024-03-23T01:05:37;99660.00;;;11.10
21210;BMP180;10762;42.206;25.326;2024-03-23T01:08:03;99651.00;;;11.10
21210;BMP180;10762;42.206;25.326;2024-03-23T01:10:30;99645.00;;;11.00
21210;BMP180;10762;42.206;25.326;2024-03-23T01:12:56;99644.00;;;11.00
21210;BMP180;10762;42.206;25.326;2024-03-23T01:15:22;99651.00;;;11.00
21210;BMP180;10762;42.206;25.326;2024-03-23T01:17:48;99647.00;;;10.90
21210;BMP180;10762;42.206;25.326;2024-03-23T01:20:14;99653.00;;;10.90
21210;BMP180;10762;42.206;25.326;2024-03-23T01:22:40;99649.00;;;10.90
21210;BMP180;10762;42.206;25.326;2024-03-23T01:25:06;99651.00;;;10.80
21210;BMP180;10762;42.206;25.326;2024-03-23T01:27:33;99654.00;;;10.80
21210;BMP180;10762;42.206;25.326;2024-03-23T01:30:00;99652.00;;;10.80
21210;BMP180;10762;42.206;25.326;2024-03-23T01:32:26;99657.00;;;10.80
21210;BMP180;10762;42.206;25.326;2024-03-23T01:34:52;99652.00;;;10.80
21210;BMP180;10762;42.206;25.326;2024-03-23T01:37:18;99644.00;;;10.70
21210;BMP180;10762;42.206;25.326;2024-03-23T01:39:44;99642.00;;;10.70
21210;BMP180;10762;42.206;25.326;2024-03-23T01:42:10;99646.00;;;10.70
21210;BMP180;10762;42.206;25.326;2024-03-23T01:44:36;99644.00;;;10.70
21210;BMP180;10762;42.206;25.326;2024-03-23T01:47:02;99644.00;;;10.70
21210;BMP180;10762;42.206;25.326;2024-03-23T01:49:29;99651.00;;;10.70
21210;BMP180;10762;42.206;25.326;2024-03-23T01:51:55;99650.00;;;10.60
21210;BMP180;10762;42.206;25.326;2024-03-23T01:54:21;99642.00;;;10.40
21210;BMP180;10762;42.206;25.326;2024-03-23T01:56:48;99648.00;;;10.20
21210;BMP180;10762;42.206;25.326;2024-03-23T01:59:15;99646.00;;;10.00
21210;BMP180;10762;42.206;25.326;2024-03-23T02:01:41;99656.00;;;9.80
21210;BMP180;10762;42.206;25.326;2024-03-23T02:04:07;99656.00;;;9.70
21210;BMP180;10762;42.206;25.326;2024-03-23T02:06:34;99651.00;;;9.50
21210;BMP180;10762;42.206;25.326;2024-03-23T02:09:01;99660.00;;;9.40
21210;BMP180;10762;42.206;25.326;2024-03-23T02:11:27;99660.00;;;9.30
21210;BMP180;10762;42.206;25.326;2024-03-23T02:13:53;99663.00;;;9.20
21210;BMP180;10762;42.206;25.326;2024-03-23T02:16:19;99666.00;;;9.20
21210;BMP180;10762;42.206;25.326;2024-03-23T02:18:45;99664.00;;;9.10
21210;BMP180;10762;42.206;25.326;2024-03-23T02:21:11;99663.00;;;9.10
21210;BMP180;10762;42.206;25.326;2024-03-23T02:23:37;99666.00;;;9.10
21210;BMP180;10762;42.206;25.326;2024-03-23T02:26:03;99666.00;;;9.10
21210;BMP180;10762;42.206;25.326;2024-03-23T02:28:29;99659.00;;;9.10
21210;BMP180;10762;42.206;25.326;2024-03-23T02:30:55;99655.00;;;9.00
21210;BMP180;10762;42.206;25.326;2024-03-23T02:33:21;99650.00;;;9.00
21210;BMP180;10762;42.206;25.326;2024-03-23T02:35:48;99662.00;;;9.00
21210;BMP180;10762;42.206;25.326;2024-03-23T02:38:15;99659.00;;;9.00
21210;BMP180;10762;42.206;25.326;2024-03-23T02:40:41;99665.00;;;9.00
21210;BMP180;10762;42.206;25.326;2024-03-23T02:43:07;99661.00;;;9.00
21210;BMP180;10762;42.206;25.326;2024-03-23T02:45:33;99666.00;;;8.90
21210;BMP180;10762;42.206;25.326;2024-03-23T02:47:59;99654.00;;;8.90
21210;BMP180;10762;42.206;25.326;2024-03-23T02:50:25;99661.00;;;8.90
21210;BMP180;10762;42.206;25.326;2024-03-23T02:52:51;99654.00;;;8.80
21210;BMP180;10762;42.206;25.326;2024-03-23T02:55:17;99657.00;;;8.80
21210;BMP180;10762;42.206;25.326;2024-03-23T02:57:43;99652.00;;;8.70
21210;BMP180;10762;42.206;25.326;2024-03-23T03:00:10;99646.00;;;8.60
21210;BMP180;10762;42.206;25.326;2024-03-23T03:02:36;99653.00;;;8.50
21210;BMP180;10762;42.206;25.326;2024-03-23T03:05:04;99656.00;;;8.50
21210;BMP180;10762;42.206;25.326;2024-03-23T03:07:31;99653.00;;;8.50
21210;BMP180;10762;42.206;25.326;2024-03-23T03:09:57;99651.00;;;8.50
21210;BMP180;10762;42.206;25.326;2024-03-23T03:12:23;99647.00;;;8.40
21210;BMP180;10762;42.206;25.326;2024-03-23T03:14:49;99662.00;;;8.40
21210;BMP180;10762;42.206;25.326;2024-03-23T03:17:15;99658.00;;;8.30
21210;BMP180;10762;42.206;25.326;2024-03-23T03:19:41;99658.00;;;8.30
21210;BMP180;10762;42.206;25.326;2024-03-23T03:22:07;99655.00;;;8.20
21210;BMP180;10762;42.206;25.326;2024-03-23T03:24:34;99658.00;;;8.20
21210;BMP180;10762;42.206;25.326;2024-03-23T03:27:00;99661.00;;;8.20
21210;BMP180;10762;42.206;25.326;2024-03-23T03:29:26;99658.00;;;8.10
21210;BMP180;10762;42.206;25.326;2024-03-23T03:31:59;99654.00;;;8.00
21210;BMP180;10762;42.206;25.326;2024-03-23T03:34:25;99657.00;;;7.90
21210;BMP180;10762;42.206;25.326;2024-03-23T03:36:51;99653.00;;;7.90
21210;BMP180;10762;42.206;25.326;2024-03-23T03:39:17;99654.00;;;7.90
21210;BMP180;10762;42.206;25.326;2024-03-23T03:41:44;99655.00;;;7.90
21210;BMP180;10762;42.206;25.326;2024-03-23T03:44:10;99663.00;;;7.90
21210;BMP180;10762;42.206;25.326;2024-03-23T03:46:36;99656.00;;;7.80
21210;BMP180;10762;42.206;25.326;2024-03-23T03:49:02;99660.00;;;7.80
21210;BMP180;10762;42.206;25.326;2024-03-23T03:51:28;99659.00;;;7.80
21210;BMP180;10762;42.206;25.326;2024-03-23T03:53:54;99660.00;;;7.80
21210;BMP180;10762;42.206;25.326;2024-03-23T03:56:20;99656.00;;;7.80
21210;BMP180;10762;42.206;25.326;2024-03-23T03:58:48;99658.00;;;7.70
21210;BMP180;10762;42.206;25.326;2024-03-23T04:01:14;99658.00;;;7.70
21210;BMP180;10762;42.206;25.326;2024-03-23T04:03:40;99666.00;;;7.70
21210;BMP180;10762;42.206;25.326;2024-03-23T04:06:09;99665.00;;;7.60
21210;BMP180;10762;42.206;25.326;2024-03-23T04:08:35;99661.00;;;7.60
21210;BMP180;10762;42.206;25.326;2024-03-23T04:11:02;99662.00;;;7.60
21210;BMP180;10762;42.206;25.326;2024-03-23T04:13:28;99666.00;;;7.60
21210;BMP180;10762;42.206;25.326;2024-03-23T04:15:54;99672.00;;;7.60
21210;BMP180;10762;42.206;25.326;2024-03-23T04:18:21;99671.00;;;7.60
21210;BMP180;10762;42.206;25.326;2024-03-23T04:20:48;99685.00;;;7.60
21210;BMP180;10762;42.206;25.326;2024-03-23T04:23:14;99681.00;;;7.60
21210;BMP180;10762;42.206;25.326;2024-03-23T04:25:40;99677.00;;;7.60
21210;BMP180;10762;42.206;25.326;2024-03-23T04:28:06;99681.00;;;7.60
21210;BMP180;10762;42.206;25.326;2024-03-23T04:30:32;99682.00;;;7.50
21210;BMP180;10762;42.206;25.326;2024-03-23T04:32:59;99683.00;;;7.60
21210;BMP180;10762;42.206;25.326;2024-03-23T04:35:25;99688.00;;;7.60
21210;BMP180;10762;42.206;25.326;2024-03-23T04:37:51;99690.00;;;7.50
21210;BMP180;10762;42.206;25.326;2024-03-23T04:40:21;99683.00;;;7.50
21210;BMP180;10762;42.206;25.326;2024-03-23T04:42:47;99691.00;;;7.50
21210;BMP180;10762;42.206;25.326;2024-03-23T04:45:14;99693.00;;;7.50
21210;BMP180;10762;42.206;25.326;2024-03-23T04:47:40;99685.00;;;7.60
21210;BMP180;10762;42.206;25.326;2024-03-23T04:50:06;99689.00;;;7.60
21210;BMP180;10762;42.206;25.326;2024-03-23T04:52:32;99685.00;;;7.70
21210;BMP180;10762;42.206;25.326;2024-03-23T04:54:58;99688.00;;;7.60
21210;BMP180;10762;42.206;25.326;2024-03-23T04:57:24;99685.00;;;7.60
21210;BMP180;10762;42.206;25.326;2024-03-23T04:59:50;99684.00;;;7.60
21210;BMP180;10762;42.206;25.326;2024-03-23T05:02:17;99679.00;;;7.60
21210;BMP180;10762;42.206;25.326;2024-03-23T05:04:43;99690.00;;;7.70
21210;BMP180;10762;42.206;25.326;2024-03-23T05:07:09;99680.00;;;7.70
21210;BMP180;10762;42.206;25.326;2024-03-23T05:09:35;99683.00;;;7.80
21210;BMP180;10762;42.206;25.326;2024-03-23T05:12:01;99682.00;;;7.90
21210;BMP180;10762;42.206;25.326;2024-03-23T05:14:28;99676.00;;;8.00
21210;BMP180;10762;42.206;25.326;2024-03-23T05:16:54;99687.00;;;8.00
21210;BMP180;10762;42.206;25.326;2024-03-23T05:19:20;99684.00;;;8.10
21210;BMP180;10762;42.206;25.326;2024-03-23T05:21:46;99694.00;;;8.20
21210;BMP180;10762;42.206;25.326;2024-03-23T05:24:12;99686.00;;;8.30
21210;BMP180;10762;42.206;25.326;2024-03-23T05:26:38;99694.00;;;8.40
21210;BMP180;10762;42.206;25.326;2024-03-23T05:29:05;99692.00;;;8.60
21210;BMP180;10762;42.206;25.326;2024-03-23T05:31:32;99692.00;;;8.70
21210;BMP180;10762;42.206;25.326;2024-03-23T05:33:58;99684.00;;;8.80
21210;BMP180;10762;42.206;25.326;2024-03-23T05:36:25;99681.00;;;8.90
21210;BMP180;10762;42.206;25.326;2024-03-23T05:38:51;99687.00;;;9.10
21210;BMP180;10762;42.206;25.326;2024-03-23T05:41:17;99681.00;;;9.30
21210;BMP180;10762;42.206;25.326;2024-03-23T05:43:43;99684.00;;;9.50
21210;BMP180;10762;42.206;25.326;2024-03-23T05:46:09;99683.00;;;9.60
21210;BMP180;10762;42.206;25.326;2024-03-23T05:48:35;99686.00;;;9.80
21210;BMP180;10762;42.206;25.326;2024-03-23T05:51:02;99700.00;;;9.90
21210;BMP180;10762;42.206;25.326;2024-03-23T05:53:28;99693.00;;;10.00
21210;BMP180;10762;42.206;25.326;2024-03-23T05:56:02;99680.00;;;10.10
21210;BMP180;10762;42.206;25.326;2024-03-23T05:58:32;99680.00;;;10.10
21210;BMP180;10762;42.206;25.326;2024-03-23T06:00:58;99680.00;;;10.20
21210;BMP180;10762;42.206;25.326;2024-03-23T06:03:25;99679.00;;;10.40
21210;BMP180;10762;42.206;25.326;2024-03-23T06:05:52;99672.00;;;10.60
21210;BMP180;10762;42.206;25.326;2024-03-23T06:08:19;99675.00;;;10.70
21210;BMP180;10762;42.206;25.326;2024-03-23T06:10:45;99677.00;;;10.80
21210;BMP180;10762;42.206;25.326;2024-03-23T06:13:12;99672.00;;;11.00
21210;BMP180;10762;42.206;25.326;2024-03-23T06:15:38;99676.00;;;11.10
21210;BMP180;10762;42.206;25.326;2024-03-23T06:18:04;99674.00;;;11.30
21210;BMP180;10762;42.206;25.326;2024-03-23T06:20:31;99670.00;;;11.40
21210;BMP180;10762;42.206;25.326;2024-03-23T06:22:57;99667.00;;;11.50
21210;BMP180;10762;42.206;25.326;2024-03-23T06:25:23;99670.00;;;11.70
21210;BMP180;10762;42.206;25.326;2024-03-23T06:27:49;99664.00;;;11.80
21210;BMP180;10762;42.206;25.326;2024-03-23T06:30:15;99669.00;;;12.00
21210;BMP180;10762;42.206;25.326;2024-03-23T06:32:41;99663.00;;;12.20
21210;BMP180;10762;42.206;25.326;2024-03-23T06:35:08;99664.00;;;12.40
21210;BMP180;10762;42.206;25.326;2024-03-23T06:37:35;99673.00;;;12.60
21210;BMP180;10762;42.206;25.326;2024-03-23T06:40:01;99669.00;;;12.80
21210;BMP180;10762;42.206;25.326;2024-03-23T06:42:27;99674.00;;;12.90
21210;BMP180;10762;42.206;25.326;2024-03-23T06:44:54;99663.00;;;13.00
21210;BMP180;10762;42.206;25.326;2024-03-23T06:47:20;99666.00;;;13.20
21210;BMP180;10762;42.206;25.326;2024-03-23T06:49:46;99663.00;;;13.40
21210;BMP180;10762;42.206;25.326;2024-03-23T06:52:12;99656.00;;;13.50
21210;BMP180;10762;42.206;25.326;2024-03-23T06:54:39;99669.00;;;13.60
21210;BMP180;10762;42.206;25.326;2024-03-23T06:57:05;99662.00;;;13.80
21210;BMP180;10762;42.206;25.326;2024-03-23T06:59:31;99667.00;;;14.00
21210;BMP180;10762;42.206;25.326;2024-03-23T07:01:57;99664.00;;;14.10
21210;BMP180;10762;42.206;25.326;2024-03-23T07:04:23;99668.00;;;14.20
21210;BMP180;10762;42.206;25.326;2024-03-23T07:06:49;99656.00;;;14.30
21210;BMP180;10762;42.206;25.326;2024-03-23T07:09:15;99652.00;;;14.50
21210;BMP180;10762;42.206;25.326;2024-03-23T07:11:41;99650.00;;;14.70
21210;BMP180;10762;42.206;25.326;2024-03-23T07:14:07;99646.00;;;15.10
21210;BMP180;10762;42.206;25.326;2024-03-23T07:16:33;99649.00;;;15.30
21210;BMP180;10762;42.206;25.326;2024-03-23T07:18:59;99641.00;;;15.60
21210;BMP180;10762;42.206;25.326;2024-03-23T07:21:26;99647.00;;;15.70
21210;BMP180;10762;42.206;25.326;2024-03-23T07:23:52;99650.00;;;15.90
21210;BMP180;10762;42.206;25.326;2024-03-23T07:26:19;99639.00;;;15.90
21210;BMP180;10762;42.206;25.326;2024-03-23T07:28:45;99642.00;;;16.00
21210;BMP180;10762;42.206;25.326;2024-03-23T07:31:12;99642.00;;;16.20
21210;BMP180;10762;42.206;25.326;2024-03-23T07:33:43;99641.00;;;16.40
21210;BMP180;10762;42.206;25.326;2024-03-23T07:36:10;99638.00;;;16.70
21210;BMP180;10762;42.206;25.326;2024-03-23T07:38:36;99635.00;;;16.80
21210;BMP180;10762;42.206;25.326;2024-03-23T07:41:03;99628.00;;;17.10
21210;BMP180;10762;42.206;25.326;2024-03-23T07:43:29;99635.00;;;17.20
21210;BMP180;10762;42.206;25.326;2024-03-23T07:45:55;99633.00;;;17.30
21210;BMP180;10762;42.206;25.326;2024-03-23T07:48:21;99626.00;;;17.30
21210;BMP180;10762;42.206;25.326;2024-03-23T07:51:03;99628.00;;;17.30
21210;BMP180;10762;42.206;25.326;2024-03-23T07:53:32;99627.00;;;17.20
21210;BMP180;10762;42.206;25.326;2024-03-23T07:56:00;99626.00;;;17.10
21210;BMP180;10762;42.206;25.326;2024-03-23T07:58:27;99635.00;;;17.20
21210;BMP180;10762;42.206;25.326;2024-03-23T08:00:53;99628.00;;;17.40
21210;BMP180;10762;42.206;25.326;2024-03-23T08:03:19;99623.00;;;17.70
21210;BMP180;10762;42.206;25.326;2024-03-23T08:05:45;99623.00;;;17.80
21210;BMP180;10762;42.206;25.326;2024-03-23T08:08:12;99621.00;;;17.80
21210;BMP180;10762;42.206;25.326;2024-03-23T08:10:48;99619.00;;;17.80
21210;BMP180;10762;42.206;25.326;2024-03-23T08:13:14;99623.00;;;17.80
21210;BMP180;10762;42.206;25.326;2024-03-23T08:15:40;99617.00;;;18.00
21210;BMP180;10762;42.206;25.326;2024-03-23T08:18:06;99619.00;;;18.20
21210;BMP180;10762;42.206;25.326;2024-03-23T08:20:32;99613.00;;;18.40
21210;BMP180;10762;42.206;25.326;2024-03-23T08:23:00;99612.00;;;18.40
21210;BMP180;10762;42.206;25.326;2024-03-23T08:25:26;99607.00;;;18.30
21210;BMP180;10762;42.206;25.326;2024-03-23T08:27:52;99604.00;;;18.50
21210;BMP180;10762;42.206;25.326;2024-03-23T08:30:18;99609.00;;;18.60
21210;BMP180;10762;42.206;25.326;2024-03-23T08:32:44;99606.00;;;18.60
21210;BMP180;10762;42.206;25.326;2024-03-23T08:35:12;99605.00;;;18.80
21210;BMP180;10762;42.206;25.326;2024-03-23T08:37:38;99603.00;;;19.10
21210;BMP180;10762;42.206;25.326;2024-03-23T08:40:04;99605.00;;;19.20
21210;BMP180;10762;42.206;25.326;2024-03-23T08:42:30;99597.00;;;19.50
21210;BMP180;10762;42.206;25.326;2024-03-23T08:44:57;99591.00;;;19.70
21210;BMP180;10762;42.206;25.326;2024-03-23T08:47:23;99589.00;;;19.70
21210;BMP180;10762;42.206;25.326;2024-03-23T08:49:49;99586.00;;;19.30
21210;BMP180;10762;42.206;25.326;2024-03-23T08:52:15;99581.00;;;19.30
21210;BMP180;10762;42.206;25.326;2024-03-23T08:54:41;99584.00;;;19.50
21210;BMP180;10762;42.206;25.326;2024-03-23T08:57:08;99578.00;;;19.70
21210;BMP180;10762;42.206;25.326;2024-03-23T08:59:34;99583.00;;;19.70
21210;BMP180;10762;42.206;25.326;2024-03-23T09:02:01;99571.00;;;19.70
21210;BMP180;10762;42.206;25.326;2024-03-23T09:04:27;99581.00;;;19.50
21210;BMP180;10762;42.206;25.326;2024-03-23T09:06:53;99573.00;;;19.60
21210;BMP180;10762;42.206;25.326;2024-03-23T09:09:19;99573.00;;;19.80
21210;BMP180;10762;42.206;25.326;2024-03-23T09:11:45;99570.00;;;19.90
21210;BMP180;10762;42.206;25.326;2024-03-23T09:14:12;99564.00;;;20.00
21210;BMP180;10762;42.206;25.326;2024-03-23T09:16:39;99562.00;;;20.20
21210;BMP180;10762;42.206;25.326;2024-03-23T09:19:05;99554.00;;;20.30
21210;BMP180;10762;42.206;25.326;2024-03-23T09:21:31;99549.00;;;20.30
21210;BMP180;10762;42.206;25.326;2024-03-23T09:23:57;99547.00;;;20.10
21210;BMP180;10762;42.206;25.326;2024-03-23T09:26:23;99541.00;;;20.10
21210;BMP180;10762;42.206;25.326;2024-03-23T09:28:51;99540.00;;;20.20
21210;BMP180;10762;42.206;25.326;2024-03-23T09:31:17;99536.00;;;20.30
21210;BMP180;10762;42.206;25.326;2024-03-23T09:33:44;99541.00;;;20.60
21210;BMP180;10762;42.206;25.326;2024-03-23T09:36:10;99527.00;;;20.70
21210;BMP180;10762;42.206;25.326;2024-03-23T09:38:40;99527.00;;;20.90
21210;BMP180;10762;42.206;25.326;2024-03-23T09:41:07;99520.00;;;20.80
21210;BMP180;10762;42.206;25.326;2024-03-23T09:43:35;99514.00;;;20.50
21210;BMP180;10762;42.206;25.326;2024-03-23T09:46:01;99515.00;;;20.40
21210;BMP180;10762;42.206;25.326;2024-03-23T09:48:28;99505.00;;;20.50
21210;BMP180;10762;42.206;25.326;2024-03-23T09:50:54;99502.00;;;20.70
21210;BMP180;10762;42.206;25.326;2024-03-23T09:53:20;99497.00;;;20.80
21210;BMP180;10762;42.206;25.326;2024-03-23T09:55:48;99501.00;;;20.80
21210;BMP180;10762;42.206;25.326;2024-03-23T09:58:15;99490.00;;;21.00
21210;BMP180;10762;42.206;25.326;2024-03-23T10:00:42;99488.00;;;21.00
21210;BMP180;10762;42.206;25.326;2024-03-23T10:03:08;99475.00;;;21.30
21210;BMP180;10762;42.206;25.326;2024-03-23T10:05:37;99475.00;;;21.50
21210;BMP180;10762;42.206;25.326;2024-03-23T10:10:41;99470.00;;;21.20
21210;BMP180;10762;42.206;25.326;2024-03-23T10:13:08;99470.00;;;21.00
21210;BMP180;10762;42.206;25.326;2024-03-23T10:15:35;99462.00;;;21.00
21210;BMP180;10762;42.206;25.326;2024-03-23T10:18:17;99459.00;;;21.20
21210;BMP180;10762;42.206;25.326;2024-03-23T10:20:47;99458.00;;;21.50
21210;BMP180;10762;42.206;25.326;2024-03-23T10:23:16;99453.00;;;21.70
21210;BMP180;10762;42.206;25.326;2024-03-23T10:25:43;99444.00;;;21.80
21210;BMP180;10762;42.206;25.326;2024-03-23T10:28:09;99442.00;;;21.80
21210;BMP180;10762;42.206;25.326;2024-03-23T10:30:37;99437.00;;;21.90
21210;BMP180;10762;42.206;25.326;2024-03-23T10:33:07;99437.00;;;21.80
21210;BMP180;10762;42.206;25.326;2024-03-23T10:35:33;99435.00;;;21.80
21210;BMP180;10762;42.206;25.326;2024-03-23T10:38:00;99432.00;;;21.90
21210;BMP180;10762;42.206;25.326;2024-03-23T10:40:26;99421.00;;;21.60
21210;BMP180;10762;42.206;25.326;2024-03-23T10:42:53;99415.00;;;21.50
21210;BMP180;10762;42.206;25.326;2024-03-23T10:45:23;99406.00;;;21.60
21210;BMP180;10762;42.206;25.326;2024-03-23T10:47:49;99412.00;;;21.80
21210;BMP180;10762;42.206;25.326;2024-03-23T10:50:15;99403.00;;;21.80
21210;BMP180;10762;42.206;25.326;2024-03-23T10:52:43;99397.00;;;21.70
21210;BMP180;10762;42.206;25.326;2024-03-23T10:55:11;99404.00;;;21.80
21210;BMP180;10762;42.206;25.326;2024-03-23T10:57:45;99392.00;;;21.90
21210;BMP180;10762;42.206;25.326;2024-03-23T11:00:14;99390.00;;;22.00
21210;BMP180;10762;42.206;25.326;2024-03-23T11:02:42;99387.00;;;21.90
21210;BMP180;10762;42.206;25.326;2024-03-23T11:05:29;99382.00;;;21.90
21210;BMP180;10762;42.206;25.326;2024-03-23T11:07:54;99382.00;;;22.20
21210;BMP180;10762;42.206;25.326;2024-03-23T11:10:30;99372.00;;;22.20
21210;BMP180;10762;42.206;25.326;2024-03-23T11:12:57;99379.00;;;22.10
21210;BMP180;10762;42.206;25.326;2024-03-23T11:15:23;99370.00;;;22.10
21210;BMP180;10762;42.206;25.326;2024-03-23T11:18:02;99360.00;;;22.20
21210;BMP180;10762;42.206;25.326;2024-03-23T11:20:31;99356.00;;;22.20
21210;BMP180;10762;42.206;25.326;2024-03-23T11:22:58;99354.00;;;22.40
21210;BMP180;10762;42.206;25.326;2024-03-23T11:25:26;99350.00;;;22.70
21210;BMP180;10762;42.206;25.326;2024-03-23T11:28:09;99344.00;;;22.90
21210;BMP180;10762;42.206;25.326;2024-03-23T11:30:36;99336.00;;;22.90
21210;BMP180;10762;42.206;25.326;2024-03-23T11:33:04;99338.00;;;23.00
21210;BMP180;10762;42.206;25.326;2024-03-23T11:35:37;99335.00;;;23.00
21210;BMP180;10762;42.206;25.326;2024-03-23T11:40:36;99324.00;;;23.30
21210;BMP180;10762;42.206;25.326;2024-03-23T11:43:04;99319.00;;;23.40
21210;BMP180;10762;42.206;25.326;2024-03-23T11:45:37;99318.00;;;23.50
21210;BMP180;10762;42.206;25.326;2024-03-23T11:48:07;99313.00;;;23.60
21210;BMP180;10762;42.206;25.326;2024-03-23T11:50:34;99304.00;;;23.70
21210;BMP180;10762;42.206;25.326;2024-03-23T11:55:39;99300.00;;;23.90
21210;BMP180;10762;42.206;25.326;2024-03-23T11:58:06;99290.00;;;24.00
21210;BMP180;10762;42.206;25.326;2024-03-23T12:00:33;99288.00;;;23.90
21210;BMP180;10762;42.206;25.326;2024-03-23T12:03:02;99283.00;;;23.90
21210;BMP180;10762;42.206;25.326;2024-03-23T12:05:29;99273.00;;;23.90
21210;BMP180;10762;42.206;25.326;2024-03-23T12:07:55;99270.00;;;23.90
21210;BMP180;10762;42.206;25.326;2024-03-23T12:10:22;99269.00;;;23.90
21210;BMP180;10762;42.206;25.326;2024-03-23T12:12:59;99264.00;;;23.80
21210;BMP180;10762;42.206;25.326;2024-03-23T12:15:25;99262.00;;;23.90
21210;BMP180;10762;42.206;25.326;2024-03-23T12:17:51;99261.00;;;23.90
21210;BMP180;10762;42.206;25.326;2024-03-23T12:20:17;99255.00;;;23.90
21210;BMP180;10762;42.206;25.326;2024-03-23T12:22:45;99254.00;;;23.90
21210;BMP180;10762;42.206;25.326;2024-03-23T12:25:12;99247.00;;;23.80
21210;BMP180;10762;42.206;25.326;2024-03-23T12:27:39;99243.00;;;23.80
21210;BMP180;10762;42.206;25.326;2024-03-23T12:30:06;99236.00;;;23.80
21210;BMP180;10762;42.206;25.326;2024-03-23T12:32:32;99229.00;;;23.90
21210;BMP180;10762;42.206;25.326;2024-03-23T12:34:58;99230.00;;;23.90
21210;BMP180;10762;42.206;25.326;2024-03-23T12:37:25;99229.00;;;23.90
21210;BMP180;10762;42.206;25.326;2024-03-23T12:39:51;99226.00;;;23.80
21210;BMP180;10762;42.206;25.326;2024-03-23T12:42:17;99228.00;;;23.70
21210;BMP180;10762;42.206;25.326;2024-03-23T12:44:43;99228.00;;;23.60
21210;BMP180;10762;42.206;25.326;2024-03-23T12:47:09;99216.00;;;23.50
21210;BMP180;10762;42.206;25.326;2024-03-23T12:49:36;99210.00;;;23.50
21210;BMP180;10762;42.206;25.326;2024-03-23T12:52:03;99216.00;;;23.60
21210;BMP180;10762;42.206;25.326;2024-03-23T12:54:30;99209.00;;;23.60
21210;BMP180;10762;42.206;25.326;2024-03-23T12:56:57;99208.00;;;23.50
21210;BMP180;10762;42.206;25.326;2024-03-23T12:59:23;99195.00;;;23.60
21210;BMP180;10762;42.206;25.326;2024-03-23T13:01:49;99194.00;;;23.60
21210;BMP180;10762;42.206;25.326;2024-03-23T13:04:16;99199.00;;;23.60
21210;BMP180;10762;42.206;25.326;2024-03-23T13:06:42;99191.00;;;23.70
21210;BMP180;10762;42.206;25.326;2024-03-23T13:09:08;99187.00;;;23.60
21210;BMP180;10762;42.206;25.326;2024-03-23T13:11:34;99188.00;;;23.60
21210;BMP180;10762;42.206;25.326;2024-03-23T13:14:00;99179.00;;;23.60
21210;BMP180;10762;42.206;25.326;2024-03-23T13:16:27;99177.00;;;23.60
21210;BMP180;10762;42.206;25.326;2024-03-23T13:18:53;99178.00;;;23.50
21210;BMP180;10762;42.206;25.326;2024-03-23T13:21:19;99166.00;;;23.40
21210;BMP180;10762;42.206;25.326;2024-03-23T13:23:48;99162.00;;;23.30
21210;BMP180;10762;42.206;25.326;2024-03-23T13:26:15;99165.00;;;23.20
21210;BMP180;10762;42.206;25.326;2024-03-23T13:28:42;99155.00;;;23.20
21210;BMP180;10762;42.206;25.326;2024-03-23T13:31:08;99152.00;;;23.10
21210;BMP180;10762;42.206;25.326;2024-03-23T13:33:34;99150.00;;;23.00
21210;BMP180;10762;42.206;25.326;2024-03-23T13:36:01;99147.00;;;22.90
21210;BMP180;10762;42.206;25.326;2024-03-23T13:38:29;99146.00;;;22.80
21210;BMP180;10762;42.206;25.326;2024-03-23T13:40:55;99147.00;;;22.80
21210;BMP180;10762;42.206;25.326;2024-03-23T13:43:22;99150.00;;;22.80
21210;BMP180;10762;42.206;25.326;2024-03-23T13:45:50;99147.00;;;22.80
21210;BMP180;10762;42.206;25.326;2024-03-23T13:48:17;99150.00;;;22.80
21210;BMP180;10762;42.206;25.326;2024-03-23T13:50:45;99143.00;;;22.70
21210;BMP180;10762;42.206;25.326;2024-03-23T13:53:14;99137.00;;;22.70
21210;BMP180;10762;42.206;25.326;2024-03-23T13:55:46;99135.00;;;22.60
21210;BMP180;10762;42.206;25.326;2024-03-23T13:58:13;99133.00;;;22.50
21210;BMP180;10762;42.206;25.326;2024-03-23T14:00:39;99127.00;;;22.40
21210;BMP180;10762;42.206;25.326;2024-03-23T14:03:05;99131.00;;;22.40
21210;BMP180;10762;42.206;25.326;2024-03-23T14:05:32;99119.00;;;22.30
21210;BMP180;10762;42.206;25.326;2024-03-23T14:07:58;99121.00;;;22.30
21210;BMP180;10762;42.206;25.326;2024-03-23T14:10:27;99116.00;;;22.30
21210;BMP180;10762;42.206;25.326;2024-03-23T14:12:53;99117.00;;;22.30
21210;BMP180;10762;42.206;25.326;2024-03-23T14:15:20;99112.00;;;22.20
21210;BMP180;10762;42.206;25.326;2024-03-23T14:17:46;99105.00;;;22.10
21210;BMP180;10762;42.206;25.326;2024-03-23T14:20:13;99104.00;;;22.10
21210;BMP180;10762;42.206;25.326;2024-03-23T14:22:39;99098.00;;;22.10
21210;BMP180;10762;42.206;25.326;2024-03-23T14:25:07;99099.00;;;22.10
21210;BMP180;10762;42.206;25.326;2024-03-23T14:27:33;99103.00;;;22.00
21210;BMP180;10762;42.206;25.326;2024-03-23T14:30:03;99105.00;;;21.90
21210;BMP180;10762;42.206;25.326;2024-03-23T14:32:30;99108.00;;;21.80
21210;BMP180;10762;42.206;25.326;2024-03-23T14:35:08;99102.00;;;21.80
21210;BMP180;10762;42.206;25.326;2024-03-23T14:37:35;99102.00;;;21.70
21210;BMP180;10762;42.206;25.326;2024-03-23T14:40:02;99097.00;;;21.60
21210;BMP180;10762;42.206;25.326;2024-03-23T14:42:28;99095.00;;;21.60
21210;BMP180;10762;42.206;25.326;2024-03-23T14:44:54;99080.00;;;21.50
21210;BMP180;10762;42.206;25.326;2024-03-23T14:47:21;99095.00;;;21.40
21210;BMP180;10762;42.206;25.326;2024-03-23T14:49:47;99087.00;;;21.30
21210;BMP180;10762;42.206;25.326;2024-03-23T14:52:16;99088.00;;;21.30
21210;BMP180;10762;42.206;25.326;2024-03-23T14:54:43;99089.00;;;21.30
21210;BMP180;10762;42.206;25.326;2024-03-23T14:57:09;99092.00;;;21.20
21210;BMP180;10762;42.206;25.326;2024-03-23T14:59:36;99089.00;;;21.20